Fort Davis, TX (79734)

6:58 AM CST on January 18, 2017 (GMT -0600)
MFDST2 | | Change Station
Active Advisory: High Wind Watch

Elev 4762 ft 30.60 °N, 103.89 °W | Updated 9 minutes ago

Partly Cloudy
Partly Cloudy
33.0 °F
Feels Like 33 °F
N
1.0
Wind Variable Wind from SSW
Gusts 4.0 mph

Today
High -- | Low -- °F
--% Chance of Precip.
Yesterday
High -- | Low -- °F
Precip. -- in
Pressure 30.18 in
Visibility 0.2 miles
Clouds Overcast 200 ft
Windchill 33 °F
Dew Point 32 °F
Humidity 97%
Rainfall 0.00 in
Snow Depth Not available.
7:52 AM 6:19 PM
Waning Gibbous, 63% visible
METAR KMRF 181256Z AUTO 17003KT 1/4SM FG OVC002 00/M01 A3016 RMK AO2 SLP219 T00001006 FZRANO TSNO RVRNO
Pressure 30.18 in
Visibility 0.2 miles
Clouds Overcast 200 ft
Windchill 33 °F
Dew Point 32 °F
Humidity 97%
Rainfall 0.00 in
Snow Depth Not available.
7:52 AM 6:19 PM
Waning Gibbous, 63% visible
METAR KMRF 181256Z AUTO 17003KT 1/4SM FG OVC002 00/M01 A3016 RMK AO2 SLP219 T00001006 FZRANO TSNO RVRNO

Get Your Daily Forecast Email!

Thanks for signing up!

Be on the lookout for a verification email in your inbox.

You'll start receiving the daily forecast at 8 AM.

×

10-Day Weather Forecast

Almanac

Astronomy

Jan. 18, 2017 Rise Set
Actual Time
Civil Twilight
Nautical Twilight
Astronomical Twilight
Moon
Length of Visible Light
Length of Day
Tomorrow will be .
, % of the Moon is Illuminated

Today's Extremes

State Highs State Lows

Community

WunderPhotos

Upload Photos

1,962,540 photos uploaded!

WunderBlog® & News

Nearby

Air Quality

  Air Quality AQ Index Pollutant
Not available.

Snow Depth

Station Depth Elevation

Earthquake Activity

City Distance Mag. Time & Date
Minimum magnitude displayed is 2.5.

Coastal Water Temperatures

Place Temperature

Stations

Nearby Weather Stations

Station Location Temp. Windchill Dew Point Humidity Wind Precip. Elev Updated Type
                   

Watches & Warnings

High Wind Watch
Issued: 2:33 AM MST Jan. 18, 2017 – National Weather Service

... High wind watch in effect from Thursday morning through
Thursday evening...

* timing... Thursday morning through Thursday evening.

* Winds... west 40 to 50 mph with gusts to 65 mph across the
Guadalupe Mountains. West 35 to 40 mph with gusts to 60 across
the Davis Mountains.

* Impacts... motorists should exercise extreme caution while
driving in the High Wind Warning area. Be alert to sudden gusts
of wind that may cause you to lose control of your vehicle.

Precautionary/preparedness actions...

A high wind watch means there is the potential for a hazardous
high wind event. Sustained winds of at least 40 mph... or gusts of
58 mph or stronger may occur. Continue to monitor the latest
forecasts.